sensor_id;sensor_type;location;lat;lon;timestamp;pressure;altitude;pressure_sealevel;temperature;humidity
3254;BME280;1639;42.804;23.342;2022-10-17T00:01:44;74573.38;;;-148.52;70.67
3254;BME280;1639;42.804;23.342;2022-10-17T00:04:09;74581.66;;;-148.52;73.28
3254;BME280;1639;42.804;23.342;2022-10-17T00:06:35;74577.53;;;-148.52;75.45
3254;BME280;1639;42.804;23.342;2022-10-17T00:09:00;74585.81;;;-148.52;77.36
3254;BME280;1639;42.804;23.342;2022-10-17T00:11:26;74608.56;;;-148.52;77.59
3254;BME280;1639;42.804;23.342;2022-10-17T00:13:54;74606.50;;;-148.52;78.17
3254;BME280;1639;42.804;23.342;2022-10-17T00:16:31;74604.44;;;-148.52;75.80
3254;BME280;1639;42.804;23.342;2022-10-17T00:18:58;74625.13;;;-148.52;75.89
3254;BME280;1639;42.804;23.342;2022-10-17T00:21:24;74641.66;;;-148.52;75.82
3254;BME280;1639;42.804;23.342;2022-10-17T00:23:49;74660.28;;;-148.52;76.53
3254;BME280;1639;42.804;23.342;2022-10-17T00:26:15;74676.84;;;-148.52;76.61
3254;BME280;1639;42.804;23.342;2022-10-17T00:28:41;74680.97;;;-148.52;76.45
3254;BME280;1639;42.804;23.342;2022-10-17T00:31:06;74676.84;;;-148.52;76.60
3254;BME280;1639;42.804;23.342;2022-10-17T00:33:33;74680.97;;;-148.52;76.97
3254;BME280;1639;42.804;23.342;2022-10-17T00:36:10;74689.25;;;-148.52;78.08
3254;BME280;1639;42.804;23.342;2022-10-17T00:38:38;74676.84;;;-148.52;77.26
3254;BME280;1639;42.804;23.342;2022-10-17T00:41:04;74670.63;;;-148.52;77.49
3254;BME280;1639;42.804;23.342;2022-10-17T00:43:51;74668.56;;;-148.52;76.93
3254;BME280;1639;42.804;23.342;2022-10-17T00:46:17;74666.50;;;-148.52;75.11
3254;BME280;1639;42.804;23.342;2022-10-17T00:48:43;74668.56;;;-148.52;73.74
3254;BME280;1639;42.804;23.342;2022-10-17T00:51:08;74680.97;;;-148.52;73.36
3254;BME280;1639;42.804;23.342;2022-10-17T00:53:36;74687.19;;;-148.52;74.32
3254;BME280;1639;42.804;23.342;2022-10-17T00:56:01;74680.97;;;-148.52;73.86
3254;BME280;1639;42.804;23.342;2022-10-17T00:58:27;74674.78;;;-148.52;75.85
3254;BME280;1639;42.804;23.342;2022-10-17T01:00:52;74666.50;;;-148.52;76.08
3254;BME280;1639;42.804;23.342;2022-10-17T01:03:18;74662.38;;;-148.52;76.19
3254;BME280;1639;42.804;23.342;2022-10-17T01:05:43;74660.28;;;-148.52;77.08
3254;BME280;1639;42.804;23.342;2022-10-17T01:08:10;74654.09;;;-148.52;78.58
3254;BME280;1639;42.804;23.342;2022-10-17T01:16:22;74645.81;;;-148.52;79.24
3254;BME280;1639;42.804;23.342;2022-10-17T01:19:03;74637.53;;;-148.52;78.11
3254;BME280;1639;42.804;23.342;2022-10-17T01:21:40;74649.94;;;-148.52;80.40
3254;BME280;1639;42.804;23.342;2022-10-17T01:32:00;74606.50;;;-148.52;77.44
3254;BME280;1639;42.804;23.342;2022-10-17T01:34:43;74610.63;;;-148.52;78.50
3254;BME280;1639;42.804;23.342;2022-10-17T01:39:56;74606.50;;;-148.52;76.40
3254;BME280;1639;42.804;23.342;2022-10-17T01:42:50;74596.16;;;-148.52;76.26
3254;BME280;1639;42.804;23.342;2022-10-17T01:45:21;74600.28;;;-148.52;74.88
3254;BME280;1639;42.804;23.342;2022-10-17T01:47:50;74606.50;;;-148.52;73.88
3254;BME280;1639;42.804;23.342;2022-10-17T01:50:24;74612.69;;;-148.52;74.73
3254;BME280;1639;42.804;23.342;2022-10-17T01:53:00;74635.47;;;-148.52;74.24
3254;BME280;1639;42.804;23.342;2022-10-17T01:55:33;74631.31;;;-148.52;73.94
3254;BME280;1639;42.804;23.342;2022-10-17T01:58:04;74647.88;;;-148.52;72.55
3254;BME280;1639;42.804;23.342;2022-10-17T02:00:31;74678.91;;;-148.52;71.21
3254;BME280;1639;42.804;23.342;2022-10-17T02:03:03;74705.81;;;-148.52;70.77
3254;BME280;1639;42.804;23.342;2022-10-17T02:05:34;74736.84;;;-148.52;71.29
3254;BME280;1639;42.804;23.342;2022-10-17T02:08:00;74751.34;;;-148.52;72.21
3254;BME280;1639;42.804;23.342;2022-10-17T02:10:50;74782.38;;;-148.52;73.88
3254;BME280;1639;42.804;23.342;2022-10-17T02:26:32;74821.69;;;-148.52;77.79
3254;BME280;1639;42.804;23.342;2022-10-17T02:29:08;74801.00;;;-148.52;77.78
3254;BME280;1639;42.804;23.342;2022-10-17T02:31:42;74792.72;;;-148.52;76.35
3254;BME280;1639;42.804;23.342;2022-10-17T02:34:18;74786.50;;;-148.52;76.12
3254;BME280;1639;42.804;23.342;2022-10-17T02:36:50;74796.84;;;-148.52;74.94
3254;BME280;1639;42.804;23.342;2022-10-17T02:39:21;74819.63;;;-148.52;75.76
3254;BME280;1639;42.804;23.342;2022-10-17T02:41:49;74834.09;;;-148.52;76.10
3254;BME280;1639;42.804;23.342;2022-10-17T02:44:16;74838.25;;;-148.52;77.22
3254;BME280;1639;42.804;23.342;2022-10-17T02:46:46;74827.88;;;-148.52;75.46
3254;BME280;1639;42.804;23.342;2022-10-17T02:49:20;74840.31;;;-148.52;75.18
3254;BME280;1639;42.804;23.342;2022-10-17T02:51:51;74850.66;;;-148.52;75.45
3254;BME280;1639;42.804;23.342;2022-10-17T02:54:29;74863.06;;;-148.52;77.01
3254;BME280;1639;42.804;23.342;2022-10-17T02:57:16;74865.13;;;-148.52;77.65
3254;BME280;1639;42.804;23.342;2022-10-17T02:59:44;74863.06;;;-148.52;76.06
3254;BME280;1639;42.804;23.342;2022-10-17T03:02:10;74879.63;;;-148.52;75.83
3254;BME280;1639;42.804;23.342;2022-10-17T03:04:36;74896.19;;;-148.52;79.04
3254;BME280;1639;42.804;23.342;2022-10-17T03:07:01;74896.19;;;-148.52;81.95
3254;BME280;1639;42.804;23.342;2022-10-17T03:09:27;74918.94;;;-148.52;82.37
3254;BME280;1639;42.804;23.342;2022-10-17T03:11:52;74906.53;;;-148.52;82.05
3254;BME280;1639;42.804;23.342;2022-10-17T03:14:18;74910.66;;;-148.52;82.29
3254;BME280;1639;42.804;23.342;2022-10-17T03:16:43;74923.06;;;-148.52;80.56
3254;BME280;1639;42.804;23.342;2022-10-17T03:19:09;74921.00;;;-148.52;80.11
3254;BME280;1639;42.804;23.342;2022-10-17T03:21:34;74931.34;;;-148.52;81.34
3254;BME280;1639;42.804;23.342;2022-10-17T03:24:02;74941.69;;;-148.52;80.44
3254;BME280;1639;42.804;23.342;2022-10-17T03:26:28;74939.63;;;-148.52;79.85
3254;BME280;1639;42.804;23.342;2022-10-17T03:28:54;74964.47;;;-148.52;80.85
3254;BME280;1639;42.804;23.342;2022-10-17T03:31:19;74956.19;;;-148.52;82.33
3254;BME280;1639;42.804;23.342;2022-10-17T03:33:45;74952.03;;;-148.52;82.42
3254;BME280;1639;42.804;23.342;2022-10-17T03:36:12;74954.09;;;-148.52;81.71
3254;BME280;1639;42.804;23.342;2022-10-17T03:38:39;74943.75;;;-148.52;81.12
3254;BME280;1639;42.804;23.342;2022-10-17T03:41:04;74929.28;;;-148.52;79.62
3254;BME280;1639;42.804;23.342;2022-10-17T03:43:30;74949.97;;;-148.52;79.10
3254;BME280;1639;42.804;23.342;2022-10-17T03:45:56;74939.63;;;-148.52;79.93
3254;BME280;1639;42.804;23.342;2022-10-17T03:48:23;74958.25;;;-148.52;79.20
3254;BME280;1639;42.804;23.342;2022-10-17T03:50:48;74962.38;;;-148.52;81.12
3254;BME280;1639;42.804;23.342;2022-10-17T03:53:14;74968.59;;;-148.52;81.10
3254;BME280;1639;42.804;23.342;2022-10-17T03:55:39;74954.09;;;-148.52;79.90
3254;BME280;1639;42.804;23.342;2022-10-17T03:58:05;74970.66;;;-148.52;81.44
3254;BME280;1639;42.804;23.342;2022-10-17T04:00:30;74956.19;;;-148.52;80.79
3254;BME280;1639;42.804;23.342;2022-10-17T04:02:56;74954.09;;;-148.52;79.76
3254;BME280;1639;42.804;23.342;2022-10-17T04:05:22;74978.94;;;-148.52;79.15
3254;BME280;1639;42.804;23.342;2022-10-17T04:07:47;74987.22;;;-148.52;79.98
3254;BME280;1639;42.804;23.342;2022-10-17T04:10:13;74966.53;;;-148.52;79.09
3254;BME280;1639;42.804;23.342;2022-10-17T04:12:38;74962.38;;;-148.52;78.44
3254;BME280;1639;42.804;23.342;2022-10-17T04:15:04;74991.34;;;-148.52;76.85
3254;BME280;1639;42.804;23.342;2022-10-17T04:17:30;75016.19;;;-148.52;78.07
3254;BME280;1639;42.804;23.342;2022-10-17T04:19:56;75016.19;;;-148.52;78.30
3254;BME280;1639;42.804;23.342;2022-10-17T04:22:21;75047.22;;;-148.52;78.27
3254;BME280;1639;42.804;23.342;2022-10-17T04:24:46;75032.75;;;-148.52;78.52
3254;BME280;1639;42.804;23.342;2022-10-17T04:27:12;75028.59;;;-148.52;77.98
3254;BME280;1639;42.804;23.342;2022-10-17T04:29:37;75053.44;;;-148.52;77.92
3254;BME280;1639;42.804;23.342;2022-10-17T04:32:03;75057.56;;;-148.52;78.58
3254;BME280;1639;42.804;23.342;2022-10-17T04:34:28;75055.50;;;-148.52;78.72
3254;BME280;1639;42.804;23.342;2022-10-17T04:36:54;75041.03;;;-148.52;78.75
3254;BME280;1639;42.804;23.342;2022-10-17T04:39:19;75022.41;;;-148.52;77.62
3254;BME280;1639;42.804;23.342;2022-10-17T04:41:45;75057.56;;;-148.52;78.87
3254;BME280;1639;42.804;23.342;2022-10-17T04:44:10;75061.72;;;-148.52;80.02
3254;BME280;1639;42.804;23.342;2022-10-17T04:46:36;75065.84;;;-148.52;80.21
3254;BME280;1639;42.804;23.342;2022-10-17T04:49:01;75065.84;;;-148.52;79.65
3254;BME280;1639;42.804;23.342;2022-10-17T04:51:27;75055.50;;;-148.52;79.11
3254;BME280;1639;42.804;23.342;2022-10-17T04:53:52;75065.84;;;-148.52;79.24
3254;BME280;1639;42.804;23.342;2022-10-17T04:56:20;75045.16;;;-148.52;79.34
3254;BME280;1639;42.804;23.342;2022-10-17T04:58:46;75057.56;;;-148.52;79.33
3254;BME280;1639;42.804;23.342;2022-10-17T05:01:17;75065.84;;;-148.52;80.37
3254;BME280;1639;42.804;23.342;2022-10-17T05:03:43;75070.00;;;-148.52;80.43
3254;BME280;1639;42.804;23.342;2022-10-17T05:06:19;75074.13;;;-148.52;80.02
3254;BME280;1639;42.804;23.342;2022-10-17T05:08:46;75088.63;;;-148.52;80.07
3254;BME280;1639;42.804;23.342;2022-10-17T05:11:24;75094.81;;;-148.52;81.21
3254;BME280;1639;42.804;23.342;2022-10-17T05:13:58;75103.09;;;-148.52;81.20
3254;BME280;1639;42.804;23.342;2022-10-17T05:16:24;75123.78;;;-148.52;82.77
3254;BME280;1639;42.804;23.342;2022-10-17T05:18:52;75181.72;;;-148.52;85.76
3254;BME280;1639;42.804;23.342;2022-10-17T05:21:18;75154.81;;;-148.52;86.89
3254;BME280;1639;42.804;23.342;2022-10-17T05:23:44;75138.28;;;-148.52;87.72
3254;BME280;1639;42.804;23.342;2022-10-17T05:26:09;75103.09;;;-148.52;85.33
3254;BME280;1639;42.804;23.342;2022-10-17T05:28:35;75078.25;;;-148.52;83.73
3254;BME280;1639;42.804;23.342;2022-10-17T05:31:02;75059.63;;;-148.52;83.11
3254;BME280;1639;42.804;23.342;2022-10-17T05:33:28;75041.03;;;-148.52;81.64
3254;BME280;1639;42.804;23.342;2022-10-17T05:35:53;75024.47;;;-148.52;80.68
3254;BME280;1639;42.804;23.342;2022-10-17T05:38:18;75022.41;;;-148.52;80.42
3254;BME280;1639;42.804;23.342;2022-10-17T05:40:44;75016.19;;;-148.52;81.05
3254;BME280;1639;42.804;23.342;2022-10-17T05:43:09;74983.06;;;-148.52;79.88
3254;BME280;1639;42.804;23.342;2022-10-17T05:45:35;74974.81;;;-148.52;78.46
3254;BME280;1639;42.804;23.342;2022-10-17T05:48:00;74952.03;;;-148.52;78.68
3254;BME280;1639;42.804;23.342;2022-10-17T05:50:25;74921.00;;;-148.52;77.53
3254;BME280;1639;42.804;23.342;2022-10-17T05:52:54;74910.66;;;-148.52;75.64
3254;BME280;1639;42.804;23.342;2022-10-17T05:55:20;74896.19;;;-148.52;75.34
3254;BME280;1639;42.804;23.342;2022-10-17T05:57:45;74869.28;;;-148.52;75.52
3254;BME280;1639;42.804;23.342;2022-10-17T06:00:11;74865.13;;;-148.52;76.05
3254;BME280;1639;42.804;23.342;2022-10-17T06:02:37;74863.06;;;-148.52;78.58
3254;BME280;1639;42.804;23.342;2022-10-17T06:05:02;74803.06;;;-148.52;76.04
3254;BME280;1639;42.804;23.342;2022-10-17T06:07:27;74796.84;;;-148.52;73.81
3254;BME280;1639;42.804;23.342;2022-10-17T06:09:53;74796.84;;;-148.52;73.28
3254;BME280;1639;42.804;23.342;2022-10-17T06:12:18;74788.56;;;-148.52;73.51
3254;BME280;1639;42.804;23.342;2022-10-17T06:14:44;74763.75;;;-148.52;73.65
3254;BME280;1639;42.804;23.342;2022-10-17T06:17:09;74736.84;;;-148.52;72.19
3254;BME280;1639;42.804;23.342;2022-10-17T06:19:35;74714.09;;;-148.52;71.28
3254;BME280;1639;42.804;23.342;2022-10-17T06:22:00;74709.94;;;-148.52;71.24
3254;BME280;1639;42.804;23.342;2022-10-17T06:24:26;74680.97;;;-148.52;72.39
3254;BME280;1639;42.804;23.342;2022-10-17T06:26:51;74685.13;;;-148.52;71.25
3254;BME280;1639;42.804;23.342;2022-10-17T06:29:17;74660.28;;;-148.52;70.98
3254;BME280;1639;42.804;23.342;2022-10-17T06:31:42;74623.06;;;-148.52;70.57
3254;BME280;1639;42.804;23.342;2022-10-17T06:34:08;74610.63;;;-148.52;69.28
3254;BME280;1639;42.804;23.342;2022-10-17T06:36:33;74587.88;;;-148.52;69.04
3254;BME280;1639;42.804;23.342;2022-10-17T06:38:59;74571.31;;;-148.52;67.52
3254;BME280;1639;42.804;23.342;2022-10-17T06:41:24;74560.97;;;-148.52;66.49
3254;BME280;1639;42.804;23.342;2022-10-17T06:43:50;74556.84;;;-148.52;66.86
3254;BME280;1639;42.804;23.342;2022-10-17T06:46:17;74532.00;;;-148.52;66.41
3254;BME280;1639;42.804;23.342;2022-10-17T06:48:43;74511.31;;;-148.52;67.17
3254;BME280;1639;42.804;23.342;2022-10-17T06:51:09;74474.06;;;-148.52;65.57
3254;BME280;1639;42.804;23.342;2022-10-17T06:53:36;74472.00;;;-148.52;65.43
3254;BME280;1639;42.804;23.342;2022-10-17T06:56:03;74445.13;;;-148.52;64.30
3254;BME280;1639;42.804;23.342;2022-10-17T06:58:31;74434.78;;;-148.52;63.65
3254;BME280;1639;42.804;23.342;2022-10-17T07:01:01;74422.34;;;-148.52;62.86
3254;BME280;1639;42.804;23.342;2022-10-17T07:03:26;74391.31;;;-148.52;62.42
3254;BME280;1639;42.804;23.342;2022-10-17T07:05:53;74370.63;;;-148.52;62.23
3254;BME280;1639;42.804;23.342;2022-10-17T07:08:19;74362.34;;;-148.52;60.71
3254;BME280;1639;42.804;23.342;2022-10-17T07:10:44;74325.13;;;-148.52;60.37
3254;BME280;1639;42.804;23.342;2022-10-17T07:13:10;74304.44;;;-148.52;58.88
3254;BME280;1639;42.804;23.342;2022-10-17T07:15:36;74275.47;;;-148.52;59.12
3254;BME280;1639;42.804;23.342;2022-10-17T07:18:02;74275.47;;;-148.52;58.18
3254;BME280;1639;42.804;23.342;2022-10-17T07:20:28;74265.13;;;-148.52;58.53
3254;BME280;1639;42.804;23.342;2022-10-17T07:22:53;74236.16;;;-148.52;57.42
3254;BME280;1639;42.804;23.342;2022-10-17T07:25:19;74292.00;;;-148.52;58.09
3254;BME280;1639;42.804;23.342;2022-10-17T07:27:44;74260.97;;;-148.52;58.58
3254;BME280;1639;42.804;23.342;2022-10-17T07:30:10;74215.47;;;-148.52;57.53
3254;BME280;1639;42.804;23.342;2022-10-17T07:32:36;74182.38;;;-148.52;56.68
3254;BME280;1639;42.804;23.342;2022-10-17T07:35:02;74174.09;;;-148.52;55.17
3254;BME280;1639;42.804;23.342;2022-10-17T07:37:28;74161.69;;;-148.52;55.78
3254;BME280;1639;42.804;23.342;2022-10-17T07:39:53;74130.66;;;-148.52;55.29
3254;BME280;1639;42.804;23.342;2022-10-17T07:42:20;74107.88;;;-148.52;55.40
3254;BME280;1639;42.804;23.342;2022-10-17T07:44:46;74076.84;;;-148.52;53.71
3254;BME280;1639;42.804;23.342;2022-10-17T07:47:12;74037.53;;;-148.52;53.48
3254;BME280;1639;42.804;23.342;2022-10-17T07:49:37;74006.53;;;-148.52;52.54
3254;BME280;1639;42.804;23.342;2022-10-17T07:52:12;73973.41;;;-148.52;51.85
3254;BME280;1639;42.804;23.342;2022-10-17T07:54:38;73940.31;;;-148.52;50.55
3254;BME280;1639;42.804;23.342;2022-10-17T07:57:04;73907.22;;;-148.52;50.69
3254;BME280;1639;42.804;23.342;2022-10-17T07:59:29;73869.97;;;-148.52;49.43
3254;BME280;1639;42.804;23.342;2022-10-17T08:01:56;73849.28;;;-148.52;49.57
3254;BME280;1639;42.804;23.342;2022-10-17T08:04:22;73824.47;;;-148.52;48.25
3254;BME280;1639;42.804;23.342;2022-10-17T08:06:48;73783.09;;;-148.52;48.07
3254;BME280;1639;42.804;23.342;2022-10-17T08:09:14;73766.56;;;-148.52;47.61
3254;BME280;1639;42.804;23.342;2022-10-17T08:11:40;73721.03;;;-148.52;46.98
3254;BME280;1639;42.804;23.342;2022-10-17T08:14:08;73692.09;;;-148.52;46.16
3254;BME280;1639;42.804;23.342;2022-10-17T08:16:34;73671.41;;;-148.52;45.75
3254;BME280;1639;42.804;23.342;2022-10-17T08:19:00;73671.41;;;-148.52;45.78
3254;BME280;1639;42.804;23.342;2022-10-17T08:21:25;73658.97;;;-148.52;45.85
3254;BME280;1639;42.804;23.342;2022-10-17T08:23:51;73675.53;;;-148.52;45.27
3254;BME280;1639;42.804;23.342;2022-10-17T08:26:16;73677.59;;;-148.52;44.98
3254;BME280;1639;42.804;23.342;2022-10-17T08:28:44;73687.94;;;-148.52;45.96
3254;BME280;1639;42.804;23.342;2022-10-17T08:31:12;73658.97;;;-148.52;45.57
3254;BME280;1639;42.804;23.342;2022-10-17T08:33:39;73627.97;;;-148.52;44.89
3254;BME280;1639;42.804;23.342;2022-10-17T08:36:05;73592.78;;;-148.52;44.71
3254;BME280;1639;42.804;23.342;2022-10-17T08:38:32;73559.69;;;-148.52;43.87
3254;BME280;1639;42.804;23.342;2022-10-17T08:41:00;73547.28;;;-148.52;43.05
3254;BME280;1639;42.804;23.342;2022-10-17T08:43:56;73539.00;;;-148.52;42.97
3254;BME280;1639;42.804;23.342;2022-10-17T08:46:30;73539.00;;;-148.52;43.68
3254;BME280;1639;42.804;23.342;2022-10-17T08:48:58;73536.94;;;-148.52;41.87
3254;BME280;1639;42.804;23.342;2022-10-17T08:51:29;73532.81;;;-148.52;42.26
3254;BME280;1639;42.804;23.342;2022-10-17T08:54:05;73524.53;;;-148.52;41.93
3254;BME280;1639;42.804;23.342;2022-10-17T08:56:42;73530.75;;;-148.52;41.69
3254;BME280;1639;42.804;23.342;2022-10-17T08:59:28;73514.19;;;-148.52;41.48
3254;BME280;1639;42.804;23.342;2022-10-17T09:07:44;73493.50;;;-148.52;41.38
3254;BME280;1639;42.804;23.342;2022-10-17T09:13:51;73476.97;;;-148.52;41.17
3254;BME280;1639;42.804;23.342;2022-10-17T09:16:09;73431.44;;;-148.52;41.05
3254;BME280;1639;42.804;23.342;2022-10-17T09:18:39;73412.84;;;-148.52;39.29
3254;BME280;1639;42.804;23.342;2022-10-17T09:21:18;73410.75;;;-148.52;39.49
3254;BME280;1639;42.804;23.342;2022-10-17T09:23:54;73398.34;;;-148.52;39.25
3254;BME280;1639;42.804;23.342;2022-10-17T09:26:21;73377.66;;;-148.52;39.51
3254;BME280;1639;42.804;23.342;2022-10-17T09:28:52;73346.66;;;-148.52;39.80
3254;BME280;1639;42.804;23.342;2022-10-17T09:31:25;73330.09;;;-148.52;38.77
3254;BME280;1639;42.804;23.342;2022-10-17T09:33:55;73307.34;;;-148.52;39.43
3254;BME280;1639;42.804;23.342;2022-10-17T09:36:29;73294.94;;;-148.52;38.73
3254;BME280;1639;42.804;23.342;2022-10-17T09:38:59;73301.13;;;-148.52;37.47
3254;BME280;1639;42.804;23.342;2022-10-17T09:41:46;73311.47;;;-148.52;37.50
3254;BME280;1639;42.804;23.342;2022-10-17T09:46:45;73309.41;;;-148.52;36.46
3254;BME280;1639;42.804;23.342;2022-10-17T09:49:25;73321.81;;;-148.52;35.33
3254;BME280;1639;42.804;23.342;2022-10-17T09:51:53;73307.34;;;-148.52;35.01
3254;BME280;1639;42.804;23.342;2022-10-17T09:54:28;73274.25;;;-148.52;36.23
3254;BME280;1639;42.804;23.342;2022-10-17T09:57:04;73265.97;;;-148.52;36.45
3254;BME280;1639;42.804;23.342;2022-10-17T09:59:45;73268.03;;;-148.52;35.68
3254;BME280;1639;42.804;23.342;2022-10-17T10:02:19;73274.25;;;-148.52;35.97
3254;BME280;1639;42.804;23.342;2022-10-17T10:04:55;73261.84;;;-148.52;36.36
3254;BME280;1639;42.804;23.342;2022-10-17T10:07:21;73257.72;;;-148.52;34.84
3254;BME280;1639;42.804;23.342;2022-10-17T10:09:48;73245.28;;;-148.52;34.37
3254;BME280;1639;42.804;23.342;2022-10-17T10:12:29;73249.44;;;-148.52;32.25
3254;BME280;1639;42.804;23.342;2022-10-17T10:14:55;73247.38;;;-148.52;32.06
3254;BME280;1639;42.804;23.342;2022-10-17T10:20:00;73261.84;;;-148.52;30.66
3254;BME280;1639;42.804;23.342;2022-10-17T10:22:25;73278.38;;;-148.52;29.94
3254;BME280;1639;42.804;23.342;2022-10-17T10:27:35;73276.31;;;-148.52;30.90
3254;BME280;1639;42.804;23.342;2022-10-17T10:30:04;73255.63;;;-148.52;32.01
3254;BME280;1639;42.804;23.342;2022-10-17T10:32:35;73232.88;;;-148.52;31.74
3254;BME280;1639;42.804;23.342;2022-10-17T10:35:05;73232.88;;;-148.52;31.15
3254;BME280;1639;42.804;23.342;2022-10-17T10:37:36;73226.69;;;-148.52;32.12
3254;BME280;1639;42.804;23.342;2022-10-17T10:40:33;73203.94;;;-148.52;31.11
3254;BME280;1639;42.804;23.342;2022-10-17T10:43:02;73199.78;;;-148.52;30.92
3254;BME280;1639;42.804;23.342;2022-10-17T10:48:03;73150.16;;;-148.52;31.36
3254;BME280;1639;42.804;23.342;2022-10-17T10:50:41;73174.97;;;-148.52;31.30
3254;BME280;1639;42.804;23.342;2022-10-17T10:53:41;73162.56;;;-148.52;30.98
3254;BME280;1639;42.804;23.342;2022-10-17T11:04:27;73193.59;;;-148.52;31.12
3254;BME280;1639;42.804;23.342;2022-10-17T11:12:17;73230.81;;;-148.52;31.93
3254;BME280;1639;42.804;23.342;2022-10-17T11:17:39;73210.13;;;-148.52;31.57
3254;BME280;1639;42.804;23.342;2022-10-17T11:22:51;73187.38;;;-148.52;31.63
3254;BME280;1639;42.804;23.342;2022-10-17T11:27:43;73203.94;;;-148.52;29.00
3254;BME280;1639;42.804;23.342;2022-10-17T11:30:13;73230.81;;;-148.52;28.78
3254;BME280;1639;42.804;23.342;2022-10-17T11:32:43;73239.09;;;-148.52;28.63
3254;BME280;1639;42.804;23.342;2022-10-17T11:35:37;73226.69;;;-148.52;28.77
3254;BME280;1639;42.804;23.342;2022-10-17T11:40:33;73253.56;;;-148.52;28.86
3254;BME280;1639;42.804;23.342;2022-10-17T11:43:15;73253.56;;;-148.52;28.80
3254;BME280;1639;42.804;23.342;2022-10-17T11:45:46;73251.50;;;-148.52;28.73
3254;BME280;1639;42.804;23.342;2022-10-17T11:48:20;73247.38;;;-148.52;29.88
3254;BME280;1639;42.804;23.342;2022-10-17T11:50:50;73249.44;;;-148.52;28.33
3254;BME280;1639;42.804;23.342;2022-10-17T11:53:19;73230.81;;;-148.52;29.02
3254;BME280;1639;42.804;23.342;2022-10-17T11:55:46;73243.22;;;-148.52;28.41
3254;BME280;1639;42.804;23.342;2022-10-17T12:13:59;73220.47;;;-148.52;27.96
3254;BME280;1639;42.804;23.342;2022-10-17T12:21:24;73216.34;;;-148.52;28.25
3254;BME280;1639;42.804;23.342;2022-10-17T12:23:52;73212.19;;;-148.52;29.28
3254;BME280;1639;42.804;23.342;2022-10-17T12:26:28;73212.19;;;-148.52;29.13
3254;BME280;1639;42.804;23.342;2022-10-17T12:28:55;73214.28;;;-148.52;28.52
3254;BME280;1639;42.804;23.342;2022-10-17T12:31:23;73212.19;;;-148.52;29.71
3254;BME280;1639;42.804;23.342;2022-10-17T12:33:54;73208.06;;;-148.52;29.73
3254;BME280;1639;42.804;23.342;2022-10-17T12:52:13;73174.97;;;-148.52;29.82
3254;BME280;1639;42.804;23.342;2022-10-17T12:54:46;73183.25;;;-148.52;29.39
3254;BME280;1639;42.804;23.342;2022-10-17T12:57:39;73166.69;;;-148.52;30.17
3254;BME280;1639;42.804;23.342;2022-10-17T13:02:44;73141.88;;;-148.52;29.73
3254;BME280;1639;42.804;23.342;2022-10-17T13:05:15;73146.00;;;-148.52;29.91
3254;BME280;1639;42.804;23.342;2022-10-17T13:07:44;73141.88;;;-148.52;29.90
3254;BME280;1639;42.804;23.342;2022-10-17T13:10:20;73137.75;;;-148.52;30.16
3254;BME280;1639;42.804;23.342;2022-10-17T13:12:46;73133.59;;;-148.52;30.47
3254;BME280;1639;42.804;23.342;2022-10-17T13:15:16;73141.88;;;-148.52;30.49
3254;BME280;1639;42.804;23.342;2022-10-17T13:17:43;73143.94;;;-148.52;30.10
3254;BME280;1639;42.804;23.342;2022-10-17T13:20:20;73148.09;;;-148.52;30.54
3254;BME280;1639;42.804;23.342;2022-10-17T13:22:49;73148.09;;;-148.52;31.88
3254;BME280;1639;42.804;23.342;2022-10-17T13:25:18;73170.84;;;-148.52;31.87
3254;BME280;1639;42.804;23.342;2022-10-17T13:27:44;73183.25;;;-148.52;31.74
3254;BME280;1639;42.804;23.342;2022-10-17T13:30:30;73212.19;;;-148.52;32.02
3254;BME280;1639;42.804;23.342;2022-10-17T13:32:56;73212.19;;;-148.52;32.04
3254;BME280;1639;42.804;23.342;2022-10-17T13:35:30;73208.06;;;-148.52;32.59
3254;BME280;1639;42.804;23.342;2022-10-17T13:37:58;73220.47;;;-148.52;32.67
3254;BME280;1639;42.804;23.342;2022-10-17T13:40:27;73212.19;;;-148.52;32.90
3254;BME280;1639;42.804;23.342;2022-10-17T13:42:56;73197.72;;;-148.52;32.92
3254;BME280;1639;42.804;23.342;2022-10-17T13:45:30;73197.72;;;-148.52;32.91
3254;BME280;1639;42.804;23.342;2022-10-17T13:48:03;73228.75;;;-148.52;33.31
3254;BME280;1639;42.804;23.342;2022-10-17T13:50:35;73228.75;;;-148.52;33.83
3254;BME280;1639;42.804;23.342;2022-10-17T13:55:37;73241.16;;;-148.52;33.74
3254;BME280;1639;42.804;23.342;2022-10-17T13:58:15;73245.28;;;-148.52;33.59
3254;BME280;1639;42.804;23.342;2022-10-17T14:00:45;73249.44;;;-148.52;33.91
3254;BME280;1639;42.804;23.342;2022-10-17T14:03:11;73263.91;;;-148.52;34.42
3254;BME280;1639;42.804;23.342;2022-10-17T14:08:24;73278.38;;;-148.52;34.26
3254;BME280;1639;42.804;23.342;2022-10-17T14:10:50;73299.06;;;-148.52;33.81
3254;BME280;1639;42.804;23.342;2022-10-17T14:13:24;73292.88;;;-148.52;33.95
3254;BME280;1639;42.804;23.342;2022-10-17T14:15:52;73288.72;;;-148.52;34.17
3254;BME280;1639;42.804;23.342;2022-10-17T14:18:22;73286.66;;;-148.52;34.39
3254;BME280;1639;42.804;23.342;2022-10-17T14:20:49;73303.22;;;-148.52;34.86
3254;BME280;1639;42.804;23.342;2022-10-17T14:26:15;73332.16;;;-148.52;34.39
3254;BME280;1639;42.804;23.342;2022-10-17T14:28:43;73328.03;;;-148.52;34.39
3254;BME280;1639;42.804;23.342;2022-10-17T14:33:43;73359.06;;;-148.52;34.61
3254;BME280;1639;42.804;23.342;2022-10-17T14:36:09;73361.13;;;-148.52;35.28
3254;BME280;1639;42.804;23.342;2022-10-17T14:38:34;73365.25;;;-148.52;35.61
3254;BME280;1639;42.804;23.342;2022-10-17T14:41:04;73357.00;;;-148.52;35.98
3254;BME280;1639;42.804;23.342;2022-10-17T14:43:31;73375.59;;;-148.52;35.65
3254;BME280;1639;42.804;23.342;2022-10-17T14:46:00;73402.50;;;-148.52;35.80
3254;BME280;1639;42.804;23.342;2022-10-17T14:48:27;73408.69;;;-148.52;36.06
3254;BME280;1639;42.804;23.342;2022-10-17T14:51:06;73416.97;;;-148.52;36.53
3254;BME280;1639;42.804;23.342;2022-10-17T14:53:32;73423.19;;;-148.52;36.84
3254;BME280;1639;42.804;23.342;2022-10-17T14:56:00;73425.25;;;-148.52;37.28
3254;BME280;1639;42.804;23.342;2022-10-17T14:58:31;73443.84;;;-148.52;36.65
3254;BME280;1639;42.804;23.342;2022-10-17T15:00:58;73456.28;;;-148.52;37.23
3254;BME280;1639;42.804;23.342;2022-10-17T15:03:24;73458.34;;;-148.52;37.13